Time;durP1;ratioP1;P1;durP2;ratioP2;P2;SDS_P1;SDS_P2;PMS_P1;PMS_P2;Temp;Humidity;BMP_temperature;BMP_pressure;BME280_temperature;BME280_humidity;BME280_pressure;Samples;Min_cycle;Max_cycle;Signal;HPM_P1;HPM_P2
2020/12/18 00:01:23;;;;;;;26.95;9.25;;;7.10;99.90;;;;;;5089188;28;20471;-82
2020/12/18 00:03:50;;;;;;;22.33;8.55;;;7.00;99.90;;;;;;5090170;28;20039;-82
2020/12/18 00:06:16;;;;;;;18.73;8.35;;;7.00;99.90;;;;;;5090641;28;20027;-82
2020/12/18 00:08:42;;;;;;;25.85;8.50;;;7.00;99.90;;;;;;5088760;28;20553;-82
2020/12/18 00:11:07;;;;;;;19.33;8.45;;;7.00;99.90;;;;;;5084766;28;20024;-82
2020/12/18 00:13:33;;;;;;;24.85;8.90;;;6.90;99.90;;;;;;5084534;28;20044;-81
2020/12/18 00:15:58;;;;;;;19.50;8.25;;;6.90;99.90;;;;;;5104431;28;20019;-82
2020/12/18 00:18:24;;;;;;;23.10;8.95;;;6.80;99.90;;;;;;5090398;28;20028;-81
2020/12/18 00:20:50;;;;;;;28.52;9.98;;;6.90;99.90;;;;;;5089961;28;20068;-81
2020/12/18 00:23:16;;;;;;;26.88;9.20;;;6.80;99.90;;;;;;5089789;28;20480;-81
2020/12/18 00:25:49;;;;;;;19.75;8.80;;;6.80;99.90;;;;;;5088022;28;20020;-81
2020/12/18 00:28:15;;;;;;;27.13;10.00;;;6.90;99.90;;;;;;5084968;28;20028;-81
2020/12/18 00:30:41;;;;;;;17.50;9.05;;;6.80;99.90;;;;;;5105076;28;20032;-81
2020/12/18 00:33:07;;;;;;;25.67;8.75;;;6.80;99.90;;;;;;5112415;28;20034;-82
2020/12/18 00:35:33;;;;;;;21.33;8.15;;;6.80;99.90;;;;;;5086443;28;20032;-81
2020/12/18 00:37:59;;;;;;;19.55;10.32;;;6.80;99.90;;;;;;5086749;28;20032;-82
2020/12/18 00:40:25;;;;;;;27.55;8.95;;;6.70;99.90;;;;;;5103243;28;20035;-81
2020/12/18 00:42:50;;;;;;;25.98;8.95;;;6.70;99.90;;;;;;5090636;28;20472;-81
2020/12/18 00:45:16;;;;;;;22.02;7.82;;;6.70;99.90;;;;;;5087530;28;20054;-81
2020/12/18 00:47:42;;;;;;;25.38;8.80;;;6.80;99.90;;;;;;5092967;28;20016;-81
2020/12/18 00:50:07;;;;;;;14.07;8.10;;;6.70;99.90;;;;;;5093529;28;20040;-81
2020/12/18 00:52:33;;;;;;;26.02;9.18;;;6.70;99.90;;;;;;5112080;28;20051;-82
2020/12/18 00:54:58;;;;;;;24.27;8.48;;;6.70;99.90;;;;;;5088050;28;20035;-81
2020/12/18 00:57:25;;;;;;;20.65;9.27;;;6.70;99.90;;;;;;5092344;28;20024;-81
2020/12/18 00:59:51;;;;;;;27.30;8.60;;;6.70;99.90;;;;;;5089387;28;20031;-82
2020/12/18 01:02:16;;;;;;;34.42;9.88;;;6.60;99.90;;;;;;5109838;28;20024;-82
2020/12/18 01:04:42;;;;;;;23.45;8.52;;;6.60;99.90;;;;;;5093659;28;20032;-82
2020/12/18 01:07:08;;;;;;;16.80;8.07;;;6.70;99.90;;;;;;5093576;28;20430;-82
2020/12/18 01:09:33;;;;;;;22.05;9.00;;;6.70;99.90;;;;;;5091247;28;20176;-82
2020/12/18 01:11:59;;;;;;;24.33;9.40;;;6.60;99.90;;;;;;5105136;28;20023;-82
2020/12/18 01:14:24;;;;;;;22.15;9.25;;;6.70;99.90;;;;;;5088102;28;20085;-82
2020/12/18 01:16:52;;;;;;;25.30;9.90;;;6.70;99.90;;;;;;5090316;28;20043;-82
2020/12/18 01:19:17;;;;;;;23.10;9.55;;;6.70;99.90;;;;;;5092355;28;20040;-82
2020/12/18 01:21:43;;;;;;;22.08;8.85;;;6.60;99.90;;;;;;5093079;28;20537;-81
2020/12/18 01:24:09;;;;;;;23.00;10.70;;;6.60;99.90;;;;;;5089173;28;20028;-82
2020/12/18 01:26:34;;;;;;;17.85;8.70;;;6.70;99.90;;;;;;5084467;28;20502;-81
2020/12/18 01:29:00;;;;;;;17.50;8.60;;;6.70;99.90;;;;;;5089746;28;20165;-82
2020/12/18 01:31:25;;;;;;;15.90;8.35;;;6.70;99.90;;;;;;5091743;28;20016;-82
2020/12/18 01:33:51;;;;;;;31.55;9.82;;;6.70;99.90;;;;;;5092384;28;20040;-82
2020/12/18 01:36:18;;;;;;;28.80;9.50;;;6.70;99.90;;;;;;5091630;28;20029;-82
2020/12/18 01:38:45;;;;;;;29.23;10.43;;;6.70;99.90;;;;;;5092197;28;20043;-82
2020/12/18 01:41:10;;;;;;;38.83;10.80;;;6.70;99.90;;;;;;5087407;28;20031;-82
2020/12/18 01:43:36;;;;;;;24.90;9.55;;;6.80;99.90;;;;;;5089443;28;20042;-82
2020/12/18 01:46:09;;;;;;;27.65;9.93;;;6.80;99.90;;;;;;5089805;28;20051;-82
2020/12/18 01:48:35;;;;;;;21.65;9.80;;;6.90;99.90;;;;;;5092557;28;20070;-81
2020/12/18 01:51:01;;;;;;;27.35;9.77;;;6.80;99.90;;;;;;5075402;28;20031;-82
2020/12/18 01:53:29;;;;;;;26.80;10.13;;;6.90;99.90;;;;;;5088846;28;20118;-82
2020/12/18 01:55:55;;;;;;;21.05;9.43;;;6.90;99.90;;;;;;5082308;28;20051;-82
2020/12/18 01:58:22;;;;;;;23.17;11.93;;;6.90;99.90;;;;;;5088574;28;20065;-81
2020/12/18 02:00:48;;;;;;;22.83;10.13;;;7.00;99.90;;;;;;5090314;28;20026;-82
2020/12/18 02:03:14;;;;;;;27.15;10.95;;;7.00;99.90;;;;;;5092126;28;20035;-82
2020/12/18 02:05:40;;;;;;;37.80;10.80;;;7.00;99.90;;;;;;5092333;28;20480;-82
2020/12/18 02:08:06;;;;;;;28.17;10.80;;;6.90;99.90;;;;;;5110175;28;20107;-82
2020/12/18 02:10:32;;;;;;;26.75;12.30;;;6.90;99.90;;;;;;5108261;28;20395;-82
2020/12/18 02:12:59;;;;;;;25.25;11.20;;;6.90;99.90;;;;;;5089092;28;20024;-82
2020/12/18 02:15:25;;;;;;;35.72;11.35;;;7.00;99.90;;;;;;5089021;28;20023;-82
2020/12/18 02:17:52;;;;;;;21.95;10.60;;;7.00;99.90;;;;;;5092082;28;20126;-82
2020/12/18 02:20:18;;;;;;;22.65;11.73;;;7.00;99.90;;;;;;5091844;28;20032;-82
2020/12/18 02:22:44;;;;;;;23.30;12.10;;;7.10;99.90;;;;;;5092013;28;20396;-82
2020/12/18 02:25:12;;;;;;;28.17;12.10;;;7.10;99.90;;;;;;5088981;28;20042;-82
2020/12/18 02:27:38;;;;;;;30.20;11.98;;;7.10;99.90;;;;;;5105699;28;20069;-82
2020/12/18 02:30:06;;;;;;;32.42;12.15;;;7.20;99.90;;;;;;5088604;28;20039;-82
2020/12/18 02:32:32;;;;;;;33.42;12.38;;;7.20;99.90;;;;;;5092052;28;20056;-82
2020/12/18 02:34:58;;;;;;;28.45;11.73;;;7.20;99.90;;;;;;5091605;28;20066;-82
2020/12/18 02:37:25;;;;;;;31.52;12.43;;;7.30;99.90;;;;;;5109309;28;20034;-81
2020/12/18 02:39:56;;;;;;;31.42;11.93;;;7.30;99.90;;;;;;5108024;28;20122;-82
2020/12/18 02:42:22;;;;;;;24.13;12.35;;;7.30;99.90;;;;;;5105462;28;20032;-81
2020/12/18 02:44:48;;;;;;;26.25;12.23;;;7.30;99.90;;;;;;5088798;28;20031;-82
2020/12/18 02:47:13;;;;;;;32.53;12.90;;;7.30;99.90;;;;;;5091110;28;20034;-82
2020/12/18 02:49:40;;;;;;;24.48;11.35;;;7.20;99.90;;;;;;5109715;28;20031;-82
2020/12/18 02:52:06;;;;;;;34.15;13.45;;;7.20;99.90;;;;;;5092160;28;20020;-82
2020/12/18 02:54:32;;;;;;;28.23;12.88;;;7.10;99.90;;;;;;5090054;28;20032;-82
2020/12/18 02:56:57;;;;;;;29.75;13.40;;;7.00;99.90;;;;;;5087664;28;20426;-82
2020/12/18 02:59:23;;;;;;;29.13;14.48;;;6.90;99.90;;;;;;5088404;28;20027;-82
2020/12/18 03:01:48;;;;;;;48.30;14.82;;;6.90;99.90;;;;;;5090147;28;20023;-82
2020/12/18 03:04:17;;;;;;;32.92;15.20;;;6.80;99.90;;;;;;5091680;28;20024;-83
2020/12/18 03:06:42;;;;;;;39.42;15.05;;;6.80;99.90;;;;;;5090613;28;20031;-82
2020/12/18 03:09:08;;;;;;;30.95;14.90;;;6.80;99.90;;;;;;5089308;28;20035;-82
2020/12/18 03:11:34;;;;;;;29.70;14.93;;;6.80;99.90;;;;;;5103803;28;20088;-82
2020/12/18 03:14:01;;;;;;;34.38;14.07;;;6.80;99.90;;;;;;5087255;28;20027;-82
2020/12/18 03:16:26;;;;;;;24.45;14.85;;;6.70;99.90;;;;;;5106697;28;20042;-82
2020/12/18 03:18:52;;;;;;;42.13;15.93;;;6.70;99.90;;;;;;5090941;28;20036;-82
2020/12/18 03:21:17;;;;;;;30.30;15.15;;;6.70;99.90;;;;;;5091326;28;20027;-82
2020/12/18 03:23:43;;;;;;;29.23;14.35;;;6.70;99.90;;;;;;5108196;28;20027;-82
2020/12/18 03:26:08;;;;;;;34.00;14.65;;;6.70;99.90;;;;;;5083499;28;20465;-82
2020/12/18 03:28:34;;;;;;;32.03;15.50;;;6.70;99.90;;;;;;5084302;28;20101;-81
2020/12/18 03:31:00;;;;;;;39.30;15.40;;;6.70;99.90;;;;;;5080790;28;20106;-82
2020/12/18 03:33:25;;;;;;;26.63;14.88;;;6.70;99.90;;;;;;5090677;28;20406;-82
2020/12/18 03:35:52;;;;;;;36.25;16.20;;;6.60;99.90;;;;;;5090826;28;20040;-82
2020/12/18 03:38:17;;;;;;;35.97;16.15;;;6.70;99.90;;;;;;5108607;28;20092;-83
2020/12/18 03:40:43;;;;;;;33.20;15.80;;;6.60;99.90;;;;;;5107276;28;20093;-82
2020/12/18 03:43:09;;;;;;;39.90;16.52;;;6.60;99.90;;;;;;5106980;28;20063;-82
2020/12/18 03:45:35;;;;;;;28.75;15.38;;;6.60;99.90;;;;;;5082539;28;20107;-82
2020/12/18 03:48:00;;;;;;;43.30;15.60;;;6.60;99.90;;;;;;5090663;28;20114;-82
2020/12/18 03:50:26;;;;;;;31.50;15.85;;;6.60;99.90;;;;;;5090677;28;21357;-82
2020/12/18 03:52:51;;;;;;;31.00;15.95;;;6.50;99.90;;;;;;5090824;28;20087;-82
2020/12/18 03:55:17;;;;;;;50.30;15.82;;;6.50;99.90;;;;;;5084762;28;20031;-82
2020/12/18 03:57:42;;;;;;;42.13;17.00;;;6.50;99.90;;;;;;5085808;28;20035;-82
2020/12/18 04:00:09;;;;;;;40.40;17.55;;;6.50;99.90;;;;;;5085464;28;20543;-82
2020/12/18 04:02:35;;;;;;;42.80;17.20;;;6.50;99.90;;;;;;5088812;28;20047;-82
2020/12/18 04:05:00;;;;;;;32.17;16.60;;;6.50;99.90;;;;;;5091334;28;20108;-82
2020/12/18 04:07:26;;;;;;;36.72;17.63;;;6.40;99.90;;;;;;5094486;28;20042;-82
2020/12/18 04:09:51;;;;;;;38.55;17.75;;;6.40;99.90;;;;;;5086402;28;20042;-82
2020/12/18 04:12:17;;;;;;;38.53;17.88;;;6.40;99.90;;;;;;5092356;28;20540;-82
2020/12/18 04:14:43;;;;;;;31.98;18.13;;;6.40;99.90;;;;;;5086769;28;20028;-82
2020/12/18 04:17:08;;;;;;;36.83;17.70;;;6.30;99.90;;;;;;5095263;28;20042;-82
2020/12/18 04:19:34;;;;;;;46.85;19.48;;;6.30;99.90;;;;;;5094371;28;20019;-82
2020/12/18 04:22:00;;;;;;;33.28;17.95;;;6.30;99.90;;;;;;5094609;28;20031;-82
2020/12/18 04:24:26;;;;;;;45.42;18.17;;;6.30;99.90;;;;;;5085047;28;20491;-82
2020/12/18 04:26:51;;;;;;;33.30;17.67;;;6.30;99.90;;;;;;5089734;28;20024;-82
2020/12/18 04:29:18;;;;;;;43.13;17.95;;;6.30;99.90;;;;;;5085389;28;20035;-82
2020/12/18 04:31:43;;;;;;;36.35;18.70;;;6.30;99.90;;;;;;5089502;28;20024;-82
2020/12/18 04:34:09;;;;;;;37.72;18.88;;;6.20;99.90;;;;;;5089919;28;20046;-82
2020/12/18 04:36:35;;;;;;;46.63;18.35;;;6.20;99.90;;;;;;5112641;28;20099;-81
2020/12/18 04:39:01;;;;;;;36.58;18.60;;;6.30;99.90;;;;;;5093370;28;20119;-82
2020/12/18 04:41:28;;;;;;;50.95;18.13;;;6.20;99.90;;;;;;5110011;28;20020;-82
2020/12/18 04:43:55;;;;;;;40.47;20.20;;;6.20;99.90;;;;;;5087702;28;21628;-82
2020/12/18 04:46:22;;;;;;;42.65;18.00;;;6.20;99.90;;;;;;5086893;28;20055;-82
2020/12/18 04:48:48;;;;;;;50.33;18.75;;;6.20;99.90;;;;;;5093084;28;20419;-82
2020/12/18 04:51:26;;;;;;;46.00;21.15;;;6.20;99.90;;;;;;5093909;28;20115;-82
2020/12/18 04:53:53;;;;;;;53.08;19.10;;;6.20;99.90;;;;;;5092163;28;20511;-82
2020/12/18 04:56:26;;;;;;;39.58;19.70;;;6.20;99.90;;;;;;5089896;28;20034;-82
2020/12/18 04:58:56;;;;;;;53.20;25.33;;;6.20;99.90;;;;;;5088190;28;20121;-82
2020/12/18 05:01:25;;;;;;;57.90;22.17;;;6.20;99.90;;;;;;5086605;28;20020;-82
2020/12/18 05:03:57;;;;;;;47.22;21.95;;;6.20;99.90;;;;;;5092914;28;20044;-82
2020/12/18 05:06:22;;;;;;;;;;;6.10;99.90;;;;;;5093729;28;20111;-82
2020/12/18 05:08:48;;;;;;;54.75;22.83;;;6.10;99.90;;;;;;5091542;28;20360;-82
2020/12/18 05:11:22;;;;;;;40.35;21.13;;;6.10;99.90;;;;;;5085083;28;20028;-82
2020/12/18 05:13:51;;;;;;;54.15;21.30;;;6.10;99.90;;;;;;5106120;28;20031;-82
2020/12/18 05:16:17;;;;;;;43.88;22.35;;;6.00;99.90;;;;;;5090337;28;20129;-81
2020/12/18 05:18:43;;;;;;;59.88;24.75;;;6.00;99.90;;;;;;5092067;28;20126;-82
2020/12/18 05:21:09;;;;;;;48.83;23.27;;;6.00;99.90;;;;;;5089469;28;20030;-82
2020/12/18 05:23:43;;;;;;;53.08;25.08;;;6.00;99.90;;;;;;5092648;28;20057;-82
2020/12/18 05:26:11;;;;;;;49.40;24.27;;;6.00;99.90;;;;;;5087910;28;20016;-82
2020/12/18 05:28:41;;;;;;;42.63;22.83;;;6.00;99.90;;;;;;5086476;28;20031;-82
2020/12/18 05:31:15;;;;;;;46.30;23.67;;;5.90;99.90;;;;;;5085892;28;20475;-82
2020/12/18 05:33:41;;;;;;;44.90;22.83;;;5.90;99.90;;;;;;5103308;28;20121;-82
2020/12/18 05:36:08;;;;;;;49.17;25.90;;;5.90;99.90;;;;;;5091533;28;20020;-82
2020/12/18 05:38:35;;;;;;;49.28;25.52;;;5.90;99.90;;;;;;5084641;28;20432;-82
2020/12/18 05:41:01;;;;;;;51.08;26.33;;;5.90;99.90;;;;;;5088460;28;20103;-82
2020/12/18 05:43:41;;;;;;;53.13;24.55;;;5.90;99.90;;;;;;5089905;28;20063;-82
2020/12/18 05:46:39;;;;;;;49.83;24.88;;;5.90;99.90;;;;;;5079488;28;20042;-81
2020/12/18 05:49:07;;;;;;;54.88;25.40;;;5.90;99.90;;;;;;5029713;28;20052;-81
2020/12/18 05:51:34;;;;;;;50.55;26.15;;;5.90;99.90;;;;;;5020444;28;20021;-81
2020/12/18 05:54:06;;;;;;;57.97;25.75;;;5.90;99.90;;;;;;5040194;28;20037;-80
2020/12/18 05:56:33;;;;;;;55.53;25.05;;;5.90;99.90;;;;;;5024222;28;20036;-81
2020/12/18 05:59:06;;;;;;;53.70;27.08;;;5.90;99.90;;;;;;5026956;28;20029;-81
2020/12/18 06:01:32;;;;;;;57.70;27.70;;;5.80;99.90;;;;;;5040231;28;20041;-81
2020/12/18 06:04:03;;;;;;;58.78;26.00;;;5.80;99.90;;;;;;5026620;28;20032;-81
2020/12/18 06:06:34;;;;;;;54.95;25.10;;;5.90;99.90;;;;;;5047291;28;20063;-81
2020/12/18 06:09:01;;;;;;;55.03;25.23;;;5.80;99.90;;;;;;5028123;28;20441;-81
2020/12/18 06:11:30;;;;;;;51.75;25.90;;;5.80;99.90;;;;;;5043571;28;20026;-80
2020/12/18 06:13:59;;;;;;;54.25;26.23;;;5.90;99.90;;;;;;5025287;28;20036;-80
2020/12/18 06:16:28;;;;;;;57.63;25.48;;;5.80;99.90;;;;;;5042985;28;20404;-80
2020/12/18 06:19:04;;;;;;;54.08;24.95;;;5.80;99.90;;;;;;5032197;28;20067;-80
2020/12/18 06:21:30;;;;;;;51.42;24.95;;;5.90;99.90;;;;;;5025815;28;20034;-80
2020/12/18 06:23:56;;;;;;;49.72;25.23;;;5.90;99.90;;;;;;5028858;28;20470;-82
2020/12/18 06:26:22;;;;;;;50.15;24.50;;;5.90;99.90;;;;;;5074758;28;20038;-80
2020/12/18 06:28:48;;;;;;;55.55;24.33;;;5.90;99.90;;;;;;5075174;28;20126;-80
2020/12/18 06:31:33;;;;;;;55.78;25.23;;;5.90;99.90;;;;;;5059281;28;20136;-81
2020/12/18 06:34:03;;;;;;;44.17;23.73;;;5.80;99.90;;;;;;5063834;28;20033;-80
2020/12/18 06:36:44;;;;;;;58.40;22.70;;;5.80;99.90;;;;;;5074284;28;20024;-80
2020/12/18 06:39:22;;;;;;;46.70;24.20;;;5.80;99.90;;;;;;5063809;28;20065;-82
2020/12/18 06:41:48;;;;;;;42.15;21.33;;;5.80;99.90;;;;;;5074742;28;20074;-81
2020/12/18 06:44:37;;;;;;;45.63;22.30;;;5.80;99.90;;;;;;5060041;28;20039;-81
2020/12/18 06:47:15;;;;;;;49.20;22.95;;;5.80;99.90;;;;;;5076256;28;20094;-81
2020/12/18 06:49:56;;;;;;;47.38;23.42;;;5.80;99.90;;;;;;5074700;28;20516;-81
2020/12/18 06:53:04;;;;;;;42.45;21.05;;;5.80;99.90;;;;;;5076023;28;20486;-80
2020/12/18 06:55:30;;;;;;;38.95;19.98;;;5.80;99.90;;;;;;5076922;28;20032;-81
2020/12/18 06:58:14;;;;;;;42.47;20.73;;;5.70;99.90;;;;;;5064774;28;20024;-81
2020/12/18 07:00:58;;;;;;;36.38;20.23;;;5.70;99.90;;;;;;5080861;28;20172;-81
2020/12/18 07:03:32;;;;;;;35.20;19.02;;;5.70;99.90;;;;;;5081711;28;20505;-82
2020/12/18 07:06:03;;;;;;;37.28;17.92;;;5.80;99.90;;;;;;5082853;28;20492;-81
2020/12/18 07:08:34;;;;;;;44.28;20.63;;;5.80;99.90;;;;;;5101161;28;20077;-82
2020/12/18 07:11:02;;;;;;;46.40;18.63;;;5.80;99.90;;;;;;5079767;28;20054;-82
2020/12/18 07:13:30;;;;;;;34.00;17.90;;;5.80;99.90;;;;;;5098744;28;20498;-82
2020/12/18 07:16:04;;;;;;;34.72;17.10;;;5.80;99.90;;;;;;5100797;28;20145;-82
2020/12/18 07:18:34;;;;;;;34.05;16.58;;;5.80;99.90;;;;;;5080174;28;20629;-81
2020/12/18 07:21:06;;;;;;;53.90;18.20;;;5.80;99.90;;;;;;5102313;28;20028;-82
2020/12/18 07:23:34;;;;;;;36.30;16.92;;;5.80;99.90;;;;;;5100229;28;20019;-82
2020/12/18 07:26:02;;;;;;;29.70;15.00;;;5.80;99.90;;;;;;5101778;28;20054;-81
2020/12/18 07:28:31;;;;;;;38.72;15.45;;;5.90;99.90;;;;;;5083916;28;20031;-82
2020/12/18 07:30:58;;;;;;;38.20;15.95;;;5.90;99.90;;;;;;5076483;28;20032;-81
2020/12/18 07:33:26;;;;;;;41.53;16.27;;;5.90;99.90;;;;;;5084917;28;20031;-81
2020/12/18 07:35:54;;;;;;;40.92;16.05;;;5.90;99.90;;;;;;5084814;28;20023;-81
2020/12/18 07:38:33;;;;;;;38.00;15.07;;;5.90;99.90;;;;;;5082428;28;20113;-81
2020/12/18 07:41:01;;;;;;;31.45;14.07;;;5.90;99.90;;;;;;5082406;28;20118;-81
2020/12/18 07:43:29;;;;;;;26.38;13.75;;;5.90;99.90;;;;;;5102711;27;20024;-82
2020/12/18 07:45:57;;;;;;;25.65;13.05;;;5.90;99.90;;;;;;5085487;28;20093;-82
2020/12/18 07:48:27;;;;;;;34.10;14.07;;;5.90;99.90;;;;;;5085921;28;20534;-82
2020/12/18 07:50:58;;;;;;;37.38;14.35;;;6.00;99.90;;;;;;5106085;28;20035;-82
2020/12/18 07:53:26;;;;;;;31.80;14.48;;;6.00;99.90;;;;;;5087019;28;20017;-81
2020/12/18 07:55:57;;;;;;;34.28;13.20;;;6.00;99.90;;;;;;5078640;28;20506;-82
2020/12/18 07:58:23;;;;;;;28.90;12.35;;;6.00;99.90;;;;;;5080391;28;20466;-82
2020/12/18 08:00:48;;;;;;;34.15;13.45;;;6.00;99.90;;;;;;5080556;28;20051;-82
2020/12/18 08:03:16;;;;;;;31.77;11.60;;;6.10;99.90;;;;;;5081535;28;20081;-82
2020/12/18 08:05:45;;;;;;;28.23;13.85;;;6.10;99.90;;;;;;5078468;28;20032;-81
2020/12/18 08:08:11;;;;;;;27.73;12.00;;;6.10;99.90;;;;;;5081164;28;20038;-82
2020/12/18 08:10:40;;;;;;;32.00;12.02;;;6.10;99.90;;;;;;5082310;28;20035;-81
2020/12/18 08:13:06;;;;;;;21.35;10.38;;;6.10;99.90;;;;;;5085126;28;20102;-83
2020/12/18 08:15:31;;;;;;;34.15;11.90;;;6.10;99.90;;;;;;5080102;28;20115;-81
2020/12/18 08:18:00;;;;;;;25.38;10.57;;;6.20;99.90;;;;;;5083324;28;20047;-82
2020/12/18 08:20:25;;;;;;;19.70;10.18;;;6.20;99.90;;;;;;5081440;28;20115;-82
2020/12/18 08:22:51;;;;;;;31.08;10.05;;;6.20;99.90;;;;;;5083067;28;20095;-82
2020/12/18 08:25:19;;;;;;;17.67;10.02;;;6.20;99.90;;;;;;5082170;28;20054;-82
2020/12/18 08:27:53;;;;;;;27.75;9.63;;;6.20;99.90;;;;;;5082096;28;20019;-81
2020/12/18 08:30:25;;;;;;;27.63;9.48;;;6.30;99.90;;;;;;5081601;28;20507;-82
2020/12/18 08:32:54;;;;;;;;;;;6.30;99.90;;;;;;5085253;28;20475;-82
2020/12/18 08:35:21;;;;;;;17.42;8.60;;;6.30;99.90;;;;;;5066094;28;19970;-82
2020/12/18 08:37:49;;;;;;;19.50;7.90;;;6.30;99.90;;;;;;5059910;28;20050;-82
2020/12/18 08:40:19;;;;;;;26.63;8.57;;;6.40;99.90;;;;;;5043116;28;20044;-81
2020/12/18 08:43:00;;;;;;;28.90;8.60;;;6.40;99.90;;;;;;5059726;28;20198;-82
2020/12/18 08:45:27;;;;;;;16.95;8.38;;;6.50;99.90;;;;;;5043435;28;20286;-82
2020/12/18 08:47:53;;;;;;;21.38;8.38;;;6.50;99.90;;;;;;5044910;28;20028;-82
2020/12/18 08:50:20;;;;;;;26.98;8.52;;;6.60;99.90;;;;;;5057673;28;21836;-81
2020/12/18 08:52:47;;;;;;;26.75;9.25;;;6.60;99.90;;;;;;5045890;28;20025;-81
2020/12/18 08:55:13;;;;;;;19.88;8.77;;;6.60;99.90;;;;;;5059021;28;20048;-82
2020/12/18 08:57:39;;;;;;;13.40;8.05;;;6.70;99.90;;;;;;5048569;28;20050;-82
2020/12/18 09:00:18;;;;;;;17.48;7.35;;;6.80;99.90;;;;;;5046110;28;20040;-81
2020/12/18 09:02:57;;;;;;;22.02;8.10;;;6.90;99.90;;;;;;5046264;28;20039;-82
2020/12/18 09:05:27;;;;;;;19.10;7.47;;;7.00;99.90;;;;;;5065814;28;20071;-82
2020/12/18 09:08:20;;;;;;;19.85;6.10;;;7.10;99.90;;;;;;5083289;28;20047;-82
2020/12/18 09:10:53;;;;;;;17.92;7.05;;;7.10;99.90;;;;;;4999001;28;20176;-82
2020/12/18 09:13:22;;;;;;;20.63;6.30;;;7.20;99.90;;;;;;4984206;28;20037;-82
2020/12/18 09:16:03;;;;;;;18.02;5.78;;;7.20;99.90;;;;;;4984332;28;20054;-81
2020/12/18 09:18:31;;;;;;;21.42;5.90;;;7.20;99.90;;;;;;5000311;28;20030;-82
2020/12/18 09:21:12;;;;;;;13.95;5.43;;;7.20;99.90;;;;;;5001014;28;20121;-82
2020/12/18 09:23:37;;;;;;;13.75;6.07;;;7.20;99.90;;;;;;4986156;28;20469;-81
2020/12/18 09:26:04;;;;;;;16.52;6.68;;;7.30;99.90;;;;;;4981816;28;20088;-82
2020/12/18 09:28:39;;;;;;;15.52;5.20;;;7.30;99.90;;;;;;4997749;28;20038;-82
2020/12/18 09:31:07;;;;;;;14.13;5.93;;;7.30;99.90;;;;;;4998751;28;20133;-82
2020/12/18 09:33:37;;;;;;;15.30;6.32;;;7.30;99.90;;;;;;4984280;28;21816;-81
2020/12/18 09:36:06;;;;;;;19.80;7.05;;;7.40;99.90;;;;;;4983587;28;21273;-82
2020/12/18 09:38:45;;;;;;;14.63;5.70;;;7.40;99.90;;;;;;4997002;28;20053;-81
2020/12/18 09:41:16;;;;;;;21.10;6.55;;;7.50;99.90;;;;;;4997264;28;20038;-82
2020/12/18 09:43:42;;;;;;;18.15;5.60;;;7.50;99.90;;;;;;4980003;28;20447;-81
2020/12/18 09:46:11;;;;;;;20.38;5.70;;;7.60;99.90;;;;;;4979503;28;20052;-81
2020/12/18 09:48:47;;;;;;;13.23;5.15;;;7.70;99.90;;;;;;5070406;28;20046;-81
2020/12/18 09:51:16;;;;;;;18.75;5.18;;;7.80;99.90;;;;;;5096348;28;20034;-82
2020/12/18 09:53:42;;;;;;;13.00;4.55;;;8.30;99.90;;;;;;5082866;28;20376;-81
2020/12/18 09:56:12;;;;;;;13.85;5.22;;;8.80;99.90;;;;;;5100347;28;20114;-82
2020/12/18 09:58:38;;;;;;;15.88;4.80;;;9.30;99.90;;;;;;5079068;28;20032;-82
2020/12/18 10:01:04;;;;;;;13.77;4.50;;;9.70;99.90;;;;;;5097769;28;20055;-82
2020/12/18 10:03:30;;;;;;;16.60;5.97;;;10.20;99.90;;;;;;5046434;28;20040;-81
2020/12/18 10:05:56;;;;;;;19.40;5.03;;;10.50;99.90;;;;;;5079776;28;20035;-82
2020/12/18 10:08:22;;;;;;;13.02;4.50;;;10.80;99.90;;;;;;5097081;28;20084;-81
2020/12/18 10:10:47;;;;;;;12.27;4.25;;;11.40;99.90;;;;;;5093013;28;20039;-81
2020/12/18 10:13:14;;;;;;;13.13;3.72;;;11.40;99.90;;;;;;5064938;28;20024;-81
2020/12/18 10:15:41;;;;;;;15.82;4.72;;;11.90;99.90;;;;;;5078404;28;20040;-81
2020/12/18 10:18:07;;;;;;;14.43;5.18;;;12.10;99.90;;;;;;5076828;28;20468;-82
2020/12/18 10:20:33;;;;;;;21.05;4.78;;;12.30;99.90;;;;;;5080041;28;20072;-81
2020/12/18 10:22:59;;;;;;;11.38;4.53;;;12.60;99.90;;;;;;5077601;28;20085;-81
2020/12/18 10:25:24;;;;;;;23.10;3.97;;;12.20;99.90;;;;;;5077571;27;20073;-82
2020/12/18 10:27:51;;;;;;;17.40;4.22;;;11.90;99.90;;;;;;5078042;28;20036;-82
2020/12/18 10:30:16;;;;;;;16.02;3.72;;;12.00;99.90;;;;;;5075375;28;20067;-82
2020/12/18 10:32:42;;;;;;;10.38;3.55;;;12.40;99.90;;;;;;5077304;28;20513;-82
2020/12/18 10:35:10;;;;;;;10.82;4.15;;;12.40;99.90;;;;;;5074233;28;20112;-82
2020/12/18 10:37:35;;;;;;;15.38;3.92;;;12.50;99.90;;;;;;5094850;28;20039;-82
2020/12/18 10:40:02;;;;;;;7.13;3.20;;;12.30;99.90;;;;;;5094268;27;20051;-81
2020/12/18 10:42:28;;;;;;;9.48;3.45;;;12.30;99.90;;;;;;5099831;27;20039;-80
2020/12/18 10:44:53;;;;;;;8.10;3.55;;;12.10;99.90;;;;;;5090567;28;20032;-80
2020/12/18 10:47:19;;;;;;;9.35;3.83;;;13.00;99.90;;;;;;5076777;27;20031;-81
2020/12/18 10:49:46;;;;;;;14.95;3.22;;;12.70;99.90;;;;;;5098921;28;20054;-81
2020/12/18 10:52:12;;;;;;;17.77;3.80;;;13.10;99.90;;;;;;5092495;28;20377;-81
2020/12/18 10:54:39;;;;;;;16.48;4.30;;;13.40;99.90;;;;;;5077481;28;20024;-81
2020/12/18 10:57:04;;;;;;;12.88;3.92;;;12.80;99.90;;;;;;5073300;28;20077;-81
2020/12/18 10:59:31;;;;;;;21.27;4.28;;;12.90;99.90;;;;;;5077667;28;20460;-81
2020/12/18 11:01:58;;;;;;;10.05;3.60;;;12.60;99.90;;;;;;5094940;28;20394;-81
2020/12/18 11:04:25;;;;;;;18.50;3.92;;;12.40;99.90;;;;;;5079011;28;20027;-81
2020/12/18 11:06:50;;;;;;;15.80;3.70;;;12.20;99.90;;;;;;5078440;28;20027;-81
2020/12/18 11:09:17;;;;;;;16.92;4.22;;;11.80;99.90;;;;;;5078257;28;20092;-81
2020/12/18 11:11:48;;;;;;;10.73;3.85;;;11.10;99.90;;;;;;5080695;28;20473;-82
2020/12/18 11:14:17;;;;;;;15.48;3.40;;;10.70;99.90;;;;;;5075771;28;20448;-82
2020/12/18 11:16:43;;;;;;;13.27;3.88;;;10.60;99.90;;;;;;5077387;28;20023;-81
2020/12/18 11:19:08;;;;;;;10.18;3.70;;;11.00;99.90;;;;;;5076137;28;20104;-84
2020/12/18 11:21:34;;;;;;;10.43;3.75;;;11.50;99.90;;;;;;5080118;27;20027;-80
2020/12/18 11:24:00;;;;;;;16.38;3.72;;;11.50;99.90;;;;;;5080849;28;20028;-81
2020/12/18 11:26:25;;;;;;;19.67;3.88;;;11.90;99.90;;;;;;5078494;28;20552;-81
2020/12/18 11:28:52;;;;;;;9.43;3.25;;;12.10;99.90;;;;;;5077683;28;20038;-81
2020/12/18 11:31:18;;;;;;;18.70;3.88;;;11.80;99.90;;;;;;5075610;28;20057;-81
2020/12/18 11:33:43;;;;;;;13.20;3.70;;;12.30;99.90;;;;;;5096574;28;20099;-82
2020/12/18 11:36:09;;;;;;;18.45;3.97;;;12.70;99.90;;;;;;5096250;28;20027;-81
2020/12/18 11:38:35;;;;;;;10.50;4.20;;;12.90;99.90;;;;;;5077839;28;20488;-81
2020/12/18 11:41:00;;;;;;;15.65;4.13;;;12.70;99.90;;;;;;5091447;28;20039;-82
2020/12/18 11:43:26;;;;;;;13.93;3.33;;;12.80;99.90;;;;;;5091222;28;20032;-82
2020/12/18 11:45:52;;;;;;;8.32;3.13;;;12.80;99.90;;;;;;5074666;28;20042;-80
2020/12/18 11:48:18;;;;;;;15.32;3.45;;;12.40;99.90;;;;;;5078580;28;20360;-80
2020/12/18 11:50:44;;;;;;;14.68;3.45;;;12.30;99.90;;;;;;5080390;28;20515;-82
2020/12/18 11:53:10;;;;;;;14.30;3.38;;;12.40;99.90;;;;;;5078448;28;20081;-82
2020/12/18 11:55:36;;;;;;;14.55;4.07;;;12.50;99.90;;;;;;5073441;28;20031;-80
2020/12/18 11:58:01;;;;;;;11.85;3.45;;;12.70;99.90;;;;;;5075909;28;20035;-83
2020/12/18 12:00:27;;;;;;;10.85;3.22;;;12.80;99.90;;;;;;5093473;28;20027;-82
2020/12/18 12:02:53;;;;;;;11.40;3.17;;;12.90;99.90;;;;;;5074330;28;20019;-80
2020/12/18 12:05:21;;;;;;;14.90;3.00;;;12.60;99.90;;;;;;5073870;28;20114;-82
2020/12/18 12:07:47;;;;;;;12.38;3.78;;;12.30;99.90;;;;;;5077798;28;20784;-80
2020/12/18 12:10:16;;;;;;;12.93;3.70;;;12.20;99.90;;;;;;5072338;28;20071;-80
2020/12/18 12:12:43;;;;;;;12.80;3.63;;;11.80;99.90;;;;;;5073731;28;20413;-82
2020/12/18 12:15:09;;;;;;;19.33;3.65;;;11.70;99.90;;;;;;5074379;28;20089;-82
2020/12/18 12:17:35;;;;;;;17.38;3.65;;;11.60;99.90;;;;;;5095022;28;20031;-81
2020/12/18 12:20:01;;;;;;;11.70;3.88;;;11.40;99.90;;;;;;5076867;28;20024;-81
2020/12/18 12:22:26;;;;;;;20.98;4.00;;;11.10;99.90;;;;;;5079930;28;20040;-81
2020/12/18 12:24:54;;;;;;;8.50;3.35;;;11.00;99.90;;;;;;5093066;28;20078;-81
2020/12/18 12:27:21;;;;;;;10.52;3.97;;;10.90;99.90;;;;;;5079608;28;20028;-82
2020/12/18 12:29:46;;;;;;;13.02;3.83;;;10.80;99.90;;;;;;5076950;28;20050;-80
2020/12/18 12:32:12;;;;;;;11.63;3.05;;;10.70;99.90;;;;;;5080855;28;20020;-80
2020/12/18 12:34:39;;;;;;;9.23;3.15;;;10.70;99.90;;;;;;5084827;28;20055;-83
2020/12/18 12:37:04;;;;;;;21.05;3.75;;;10.70;99.90;;;;;;5079442;28;20024;-80
2020/12/18 12:39:30;;;;;;;18.20;3.65;;;10.70;99.90;;;;;;5078780;28;20059;-81
2020/12/18 12:41:56;;;;;;;14.27;3.75;;;10.70;99.90;;;;;;5096327;28;20142;-81
2020/12/18 12:44:21;;;;;;;10.10;3.53;;;10.70;99.90;;;;;;5082599;28;20040;-80